sensor_id;sensor_type;location;lat;lon;timestamp;temperature;humidity
23010;DHT22;11671;49.990;8.028;2023-05-07T00:01:48;17.00;99.90
23010;DHT22;11671;49.990;8.028;2023-05-07T00:04:13;16.90;99.90
23010;DHT22;11671;49.990;8.028;2023-05-07T00:06:39;16.90;99.90
23010;DHT22;11671;49.990;8.028;2023-05-07T00:09:05;16.80;99.90
23010;DHT22;11671;49.990;8.028;2023-05-07T00:11:30;16.80;99.90
23010;DHT22;11671;49.990;8.028;2023-05-07T00:13:56;16.70;99.90
23010;DHT22;11671;49.990;8.028;2023-05-07T00:16:22;16.80;99.90
23010;DHT22;11671;49.990;8.028;2023-05-07T00:18:48;16.80;99.90
23010;DHT22;11671;49.990;8.028;2023-05-07T00:21:13;16.80;99.90
23010;DHT22;11671;49.990;8.028;2023-05-07T00:23:39;16.70;99.90
23010;DHT22;11671;49.990;8.028;2023-05-07T00:26:04;16.80;99.90
23010;DHT22;11671;49.990;8.028;2023-05-07T00:28:30;16.80;99.90
23010;DHT22;11671;49.990;8.028;2023-05-07T00:30:56;16.80;99.90
23010;DHT22;11671;49.990;8.028;2023-05-07T00:33:21;16.80;99.90
23010;DHT22;11671;49.990;8.028;2023-05-07T00:35:48;16.80;99.90
23010;DHT22;11671;49.990;8.028;2023-05-07T00:38:14;16.80;99.90
23010;DHT22;11671;49.990;8.028;2023-05-07T00:40:39;16.80;99.90
23010;DHT22;11671;49.990;8.028;2023-05-07T00:43:05;16.70;99.90
23010;DHT22;11671;49.990;8.028;2023-05-07T00:45:31;16.70;99.90
23010;DHT22;11671;49.990;8.028;2023-05-07T00:47:58;16.70;99.90
23010;DHT22;11671;49.990;8.028;2023-05-07T00:50:24;16.70;99.90
23010;DHT22;11671;49.990;8.028;2023-05-07T00:52:54;16.50;99.90
23010;DHT22;11671;49.990;8.028;2023-05-07T00:55:21;16.40;99.90
23010;DHT22;11671;49.990;8.028;2023-05-07T00:57:46;16.40;99.90
23010;DHT22;11671;49.990;8.028;2023-05-07T01:00:13;16.40;99.90
23010;DHT22;11671;49.990;8.028;2023-05-07T01:02:39;16.30;99.90
23010;DHT22;11671;49.990;8.028;2023-05-07T01:05:05;16.40;99.90
23010;DHT22;11671;49.990;8.028;2023-05-07T01:07:34;16.30;99.90
23010;DHT22;11671;49.990;8.028;2023-05-07T01:10:02;16.30;99.90
23010;DHT22;11671;49.990;8.028;2023-05-07T01:12:30;16.30;99.90
23010;DHT22;11671;49.990;8.028;2023-05-07T01:14:57;16.20;99.90
23010;DHT22;11671;49.990;8.028;2023-05-07T01:17:23;16.10;99.90
23010;DHT22;11671;49.990;8.028;2023-05-07T01:19:48;16.10;99.90
23010;DHT22;11671;49.990;8.028;2023-05-07T01:22:16;15.90;99.90
23010;DHT22;11671;49.990;8.028;2023-05-07T01:24:46;15.80;99.90
23010;DHT22;11671;49.990;8.028;2023-05-07T01:27:12;15.70;99.90
23010;DHT22;11671;49.990;8.028;2023-05-07T01:29:37;15.60;99.90
23010;DHT22;11671;49.990;8.028;2023-05-07T01:32:03;15.50;99.90
23010;DHT22;11671;49.990;8.028;2023-05-07T01:34:32;15.50;99.90
23010;DHT22;11671;49.990;8.028;2023-05-07T01:36:58;15.50;99.90
23010;DHT22;11671;49.990;8.028;2023-05-07T01:39:25;15.50;99.90
23010;DHT22;11671;49.990;8.028;2023-05-07T01:41:56;15.50;99.90
23010;DHT22;11671;49.990;8.028;2023-05-07T01:44:22;15.50;99.90
23010;DHT22;11671;49.990;8.028;2023-05-07T01:46:49;15.60;99.90
23010;DHT22;11671;49.990;8.028;2023-05-07T01:49:16;15.70;99.90
23010;DHT22;11671;49.990;8.028;2023-05-07T01:51:42;15.70;99.90
23010;DHT22;11671;49.990;8.028;2023-05-07T01:54:08;15.80;99.90
23010;DHT22;11671;49.990;8.028;2023-05-07T01:56:34;15.90;99.90
23010;DHT22;11671;49.990;8.028;2023-05-07T01:59:00;15.90;99.90
23010;DHT22;11671;49.990;8.028;2023-05-07T02:01:25;15.90;99.90
23010;DHT22;11671;49.990;8.028;2023-05-07T02:03:51;15.90;99.90
23010;DHT22;11671;49.990;8.028;2023-05-07T02:06:17;16.00;99.90
23010;DHT22;11671;49.990;8.028;2023-05-07T02:08:42;16.00;99.90
23010;DHT22;11671;49.990;8.028;2023-05-07T02:11:08;16.00;99.90
23010;DHT22;11671;49.990;8.028;2023-05-07T02:13:34;16.00;99.90
23010;DHT22;11671;49.990;8.028;2023-05-07T02:16:00;16.10;99.90
23010;DHT22;11671;49.990;8.028;2023-05-07T02:18:25;16.00;99.90
23010;DHT22;11671;49.990;8.028;2023-05-07T02:20:51;16.00;99.90
23010;DHT22;11671;49.990;8.028;2023-05-07T02:23:17;16.10;99.90
23010;DHT22;11671;49.990;8.028;2023-05-07T02:25:42;16.10;99.90
23010;DHT22;11671;49.990;8.028;2023-05-07T02:28:08;16.10;99.90
23010;DHT22;11671;49.990;8.028;2023-05-07T02:30:33;16.00;99.90
23010;DHT22;11671;49.990;8.028;2023-05-07T02:32:59;16.00;99.90
23010;DHT22;11671;49.990;8.028;2023-05-07T02:35:25;16.00;99.90
23010;DHT22;11671;49.990;8.028;2023-05-07T02:37:51;15.90;99.90
23010;DHT22;11671;49.990;8.028;2023-05-07T02:40:16;15.80;99.90
23010;DHT22;11671;49.990;8.028;2023-05-07T02:42:42;15.80;99.90
23010;DHT22;11671;49.990;8.028;2023-05-07T02:45:08;15.70;99.90
23010;DHT22;11671;49.990;8.028;2023-05-07T02:47:34;15.70;99.90
23010;DHT22;11671;49.990;8.028;2023-05-07T02:50:00;15.60;99.90
23010;DHT22;11671;49.990;8.028;2023-05-07T02:52:25;15.70;99.90
23010;DHT22;11671;49.990;8.028;2023-05-07T02:54:51;15.70;99.90
23010;DHT22;11671;49.990;8.028;2023-05-07T02:57:16;15.70;99.90
23010;DHT22;11671;49.990;8.028;2023-05-07T02:59:42;15.70;99.90
23010;DHT22;11671;49.990;8.028;2023-05-07T03:02:08;15.70;99.90
23010;DHT22;11671;49.990;8.028;2023-05-07T03:04:33;15.70;99.90
23010;DHT22;11671;49.990;8.028;2023-05-07T03:06:59;15.80;99.90
23010;DHT22;11671;49.990;8.028;2023-05-07T03:09:25;15.80;99.90
23010;DHT22;11671;49.990;8.028;2023-05-07T03:11:51;15.80;99.90
23010;DHT22;11671;49.990;8.028;2023-05-07T03:14:16;15.80;99.90
23010;DHT22;11671;49.990;8.028;2023-05-07T03:16:42;15.70;99.90
23010;DHT22;11671;49.990;8.028;2023-05-07T03:19:07;15.80;99.90
23010;DHT22;11671;49.990;8.028;2023-05-07T03:21:33;15.80;99.90
23010;DHT22;11671;49.990;8.028;2023-05-07T03:23:59;15.80;99.90
23010;DHT22;11671;49.990;8.028;2023-05-07T03:26:25;15.80;99.90
23010;DHT22;11671;49.990;8.028;2023-05-07T03:28:51;15.80;99.90
23010;DHT22;11671;49.990;8.028;2023-05-07T03:31:17;15.80;99.90
23010;DHT22;11671;49.990;8.028;2023-05-07T03:33:53;15.90;99.90
23010;DHT22;11671;49.990;8.028;2023-05-07T03:36:20;15.90;99.90
23010;DHT22;11671;49.990;8.028;2023-05-07T03:38:46;15.90;99.90
23010;DHT22;11671;49.990;8.028;2023-05-07T03:41:11;15.90;99.90
23010;DHT22;11671;49.990;8.028;2023-05-07T03:43:37;15.90;99.90
23010;DHT22;11671;49.990;8.028;2023-05-07T03:46:02;15.80;99.90
23010;DHT22;11671;49.990;8.028;2023-05-07T03:48:28;15.80;99.90
23010;DHT22;11671;49.990;8.028;2023-05-07T03:50:53;15.80;99.90
23010;DHT22;11671;49.990;8.028;2023-05-07T03:53:19;15.80;99.90
23010;DHT22;11671;49.990;8.028;2023-05-07T03:55:45;15.80;99.90
23010;DHT22;11671;49.990;8.028;2023-05-07T03:58:10;15.80;99.90
23010;DHT22;11671;49.990;8.028;2023-05-07T04:00:36;15.80;99.90
23010;DHT22;11671;49.990;8.028;2023-05-07T04:03:04;15.90;99.90
23010;DHT22;11671;49.990;8.028;2023-05-07T04:05:30;15.90;99.90
23010;DHT22;11671;49.990;8.028;2023-05-07T04:07:57;15.90;99.90
23010;DHT22;11671;49.990;8.028;2023-05-07T04:10:23;15.80;99.90
23010;DHT22;11671;49.990;8.028;2023-05-07T04:12:48;15.70;99.90
23010;DHT22;11671;49.990;8.028;2023-05-07T04:15:14;15.70;99.90
23010;DHT22;11671;49.990;8.028;2023-05-07T04:17:40;15.70;99.90
23010;DHT22;11671;49.990;8.028;2023-05-07T04:20:10;15.70;99.90
23010;DHT22;11671;49.990;8.028;2023-05-07T04:22:36;15.70;99.90
23010;DHT22;11671;49.990;8.028;2023-05-07T04:25:02;15.80;99.90
23010;DHT22;11671;49.990;8.028;2023-05-07T04:27:28;15.80;99.90
23010;DHT22;11671;49.990;8.028;2023-05-07T04:29:53;15.80;99.90
23010;DHT22;11671;49.990;8.028;2023-05-07T04:32:22;15.80;99.90
23010;DHT22;11671;49.990;8.028;2023-05-07T04:34:47;15.70;99.90
23010;DHT22;11671;49.990;8.028;2023-05-07T04:37:13;15.80;99.90
23010;DHT22;11671;49.990;8.028;2023-05-07T04:39:38;15.80;99.90
23010;DHT22;11671;49.990;8.028;2023-05-07T04:42:04;15.80;99.90
23010;DHT22;11671;49.990;8.028;2023-05-07T04:44:30;15.80;99.90
23010;DHT22;11671;49.990;8.028;2023-05-07T04:46:56;15.90;99.90
23010;DHT22;11671;49.990;8.028;2023-05-07T04:49:22;15.90;99.90
23010;DHT22;11671;49.990;8.028;2023-05-07T04:51:47;15.90;99.90
23010;DHT22;11671;49.990;8.028;2023-05-07T04:54:13;15.90;99.90
23010;DHT22;11671;49.990;8.028;2023-05-07T04:56:38;15.90;99.90
23010;DHT22;11671;49.990;8.028;2023-05-07T04:59:04;15.80;99.90
23010;DHT22;11671;49.990;8.028;2023-05-07T05:01:31;15.80;99.90
23010;DHT22;11671;49.990;8.028;2023-05-07T05:03:57;15.90;99.90
23010;DHT22;11671;49.990;8.028;2023-05-07T05:06:23;16.00;99.90
23010;DHT22;11671;49.990;8.028;2023-05-07T05:08:48;16.00;99.90
23010;DHT22;11671;49.990;8.028;2023-05-07T05:11:14;16.10;99.90
23010;DHT22;11671;49.990;8.028;2023-05-07T05:15:28;16.20;99.90
23010;DHT22;11671;49.990;8.028;2023-05-07T05:17:54;16.30;99.90
23010;DHT22;11671;49.990;8.028;2023-05-07T05:20:19;16.20;99.90
23010;DHT22;11671;49.990;8.028;2023-05-07T05:22:45;16.20;99.90
23010;DHT22;11671;49.990;8.028;2023-05-07T05:25:10;16.30;99.90
23010;DHT22;11671;49.990;8.028;2023-05-07T05:27:36;16.40;99.90
23010;DHT22;11671;49.990;8.028;2023-05-07T05:30:01;16.60;99.90
23010;DHT22;11671;49.990;8.028;2023-05-07T05:32:27;16.80;99.90
23010;DHT22;11671;49.990;8.028;2023-05-07T05:34:53;17.00;99.90
23010;DHT22;11671;49.990;8.028;2023-05-07T05:37:18;17.20;99.90
23010;DHT22;11671;49.990;8.028;2023-05-07T05:39:44;17.40;99.90
23010;DHT22;11671;49.990;8.028;2023-05-07T05:42:09;17.90;99.90
23010;DHT22;11671;49.990;8.028;2023-05-07T05:44:35;19.30;99.90
23010;DHT22;11671;49.990;8.028;2023-05-07T05:47:00;20.50;99.90
23010;DHT22;11671;49.990;8.028;2023-05-07T05:49:26;20.30;99.90
23010;DHT22;11671;49.990;8.028;2023-05-07T05:51:52;20.00;99.90
23010;DHT22;11671;49.990;8.028;2023-05-07T05:54:17;19.90;99.90
23010;DHT22;11671;49.990;8.028;2023-05-07T05:56:43;19.80;99.90
23010;DHT22;11671;49.990;8.028;2023-05-07T05:59:08;19.90;99.90
23010;DHT22;11671;49.990;8.028;2023-05-07T06:01:34;20.60;99.90
23010;DHT22;11671;49.990;8.028;2023-05-07T06:04:00;21.30;99.90
23010;DHT22;11671;49.990;8.028;2023-05-07T06:06:25;21.50;99.90
23010;DHT22;11671;49.990;8.028;2023-05-07T06:08:51;21.30;99.90
23010;DHT22;11671;49.990;8.028;2023-05-07T06:11:17;20.90;99.90
23010;DHT22;11671;49.990;8.028;2023-05-07T06:13:42;20.80;99.90
23010;DHT22;11671;49.990;8.028;2023-05-07T06:16:08;20.70;99.90
23010;DHT22;11671;49.990;8.028;2023-05-07T06:18:33;20.40;99.90
23010;DHT22;11671;49.990;8.028;2023-05-07T06:21:01;20.30;99.90
23010;DHT22;11671;49.990;8.028;2023-05-07T06:23:27;20.10;99.90
23010;DHT22;11671;49.990;8.028;2023-05-07T06:25:52;19.80;99.90
23010;DHT22;11671;49.990;8.028;2023-05-07T06:28:18;19.80;99.90
23010;DHT22;11671;49.990;8.028;2023-05-07T06:30:44;19.80;99.90
23010;DHT22;11671;49.990;8.028;2023-05-07T06:33:09;19.80;99.90
23010;DHT22;11671;49.990;8.028;2023-05-07T06:35:35;19.60;99.90
23010;DHT22;11671;49.990;8.028;2023-05-07T06:38:00;19.50;99.90
23010;DHT22;11671;49.990;8.028;2023-05-07T06:40:26;19.50;99.90
23010;DHT22;11671;49.990;8.028;2023-05-07T06:42:52;19.50;99.90
23010;DHT22;11671;49.990;8.028;2023-05-07T06:45:18;19.60;99.90
23010;DHT22;11671;49.990;8.028;2023-05-07T06:47:44;19.60;99.90
23010;DHT22;11671;49.990;8.028;2023-05-07T06:50:10;19.60;99.90
23010;DHT22;11671;49.990;8.028;2023-05-07T06:52:35;19.60;99.90
23010;DHT22;11671;49.990;8.028;2023-05-07T06:55:01;19.70;99.90
23010;DHT22;11671;49.990;8.028;2023-05-07T06:57:27;19.60;99.90
23010;DHT22;11671;49.990;8.028;2023-05-07T06:59:52;19.70;99.90
23010;DHT22;11671;49.990;8.028;2023-05-07T07:02:18;19.70;99.90
23010;DHT22;11671;49.990;8.028;2023-05-07T07:04:43;19.50;99.90
23010;DHT22;11671;49.990;8.028;2023-05-07T07:07:10;19.40;99.90
23010;DHT22;11671;49.990;8.028;2023-05-07T07:09:36;19.40;99.90
23010;DHT22;11671;49.990;8.028;2023-05-07T07:12:02;19.50;99.90
23010;DHT22;11671;49.990;8.028;2023-05-07T07:14:27;19.60;99.90
23010;DHT22;11671;49.990;8.028;2023-05-07T07:16:53;19.60;99.90
23010;DHT22;11671;49.990;8.028;2023-05-07T07:19:18;19.70;99.90
23010;DHT22;11671;49.990;8.028;2023-05-07T07:21:45;19.80;99.90
23010;DHT22;11671;49.990;8.028;2023-05-07T07:24:11;19.80;99.90
23010;DHT22;11671;49.990;8.028;2023-05-07T07:26:36;20.00;99.90
23010;DHT22;11671;49.990;8.028;2023-05-07T07:29:02;20.00;99.90
23010;DHT22;11671;49.990;8.028;2023-05-07T07:31:28;20.00;99.90
23010;DHT22;11671;49.990;8.028;2023-05-07T07:33:53;20.00;99.90
23010;DHT22;11671;49.990;8.028;2023-05-07T07:36:19;20.00;99.90
23010;DHT22;11671;49.990;8.028;2023-05-07T07:38:44;20.00;99.90
23010;DHT22;11671;49.990;8.028;2023-05-07T07:41:10;20.00;99.90
23010;DHT22;11671;49.990;8.028;2023-05-07T07:43:35;20.00;99.90
23010;DHT22;11671;49.990;8.028;2023-05-07T07:46:01;20.10;99.90
23010;DHT22;11671;49.990;8.028;2023-05-07T07:48:27;20.20;99.90
23010;DHT22;11671;49.990;8.028;2023-05-07T07:50:52;20.00;99.90
23010;DHT22;11671;49.990;8.028;2023-05-07T07:53:18;19.90;99.90
23010;DHT22;11671;49.990;8.028;2023-05-07T07:55:44;20.10;99.90
23010;DHT22;11671;49.990;8.028;2023-05-07T07:58:09;20.20;99.90
23010;DHT22;11671;49.990;8.028;2023-05-07T08:00:35;20.30;99.90
23010;DHT22;11671;49.990;8.028;2023-05-07T08:03:00;20.50;99.90
23010;DHT22;11671;49.990;8.028;2023-05-07T08:05:28;20.70;99.90
23010;DHT22;11671;49.990;8.028;2023-05-07T08:07:54;20.80;99.90
23010;DHT22;11671;49.990;8.028;2023-05-07T08:10:21;21.00;99.90
23010;DHT22;11671;49.990;8.028;2023-05-07T08:12:50;21.20;99.90
23010;DHT22;11671;49.990;8.028;2023-05-07T08:15:17;21.10;99.90
23010;DHT22;11671;49.990;8.028;2023-05-07T08:17:43;21.10;99.90
23010;DHT22;11671;49.990;8.028;2023-05-07T08:20:09;21.40;99.90
23010;DHT22;11671;49.990;8.028;2023-05-07T08:22:35;21.10;99.90
23010;DHT22;11671;49.990;8.028;2023-05-07T08:25:00;21.20;99.90
23010;DHT22;11671;49.990;8.028;2023-05-07T08:27:26;21.40;99.90
23010;DHT22;11671;49.990;8.028;2023-05-07T08:29:52;21.60;99.90
23010;DHT22;11671;49.990;8.028;2023-05-07T08:32:17;21.70;99.90
23010;DHT22;11671;49.990;8.028;2023-05-07T08:34:43;21.60;99.90
23010;DHT22;11671;49.990;8.028;2023-05-07T08:37:08;21.60;99.90
23010;DHT22;11671;49.990;8.028;2023-05-07T08:39:34;21.70;99.90
23010;DHT22;11671;49.990;8.028;2023-05-07T08:42:00;21.80;99.90
23010;DHT22;11671;49.990;8.028;2023-05-07T08:44:33;21.90;99.90
23010;DHT22;11671;49.990;8.028;2023-05-07T08:47:01;21.90;99.90
23010;DHT22;11671;49.990;8.028;2023-05-07T08:49:28;22.20;99.90
23010;DHT22;11671;49.990;8.028;2023-05-07T08:51:54;22.60;99.90
23010;DHT22;11671;49.990;8.028;2023-05-07T08:54:21;22.50;99.90
23010;DHT22;11671;49.990;8.028;2023-05-07T08:56:47;22.70;99.90
23010;DHT22;11671;49.990;8.028;2023-05-07T08:59:13;23.10;99.90
23010;DHT22;11671;49.990;8.028;2023-05-07T09:01:39;23.30;99.90
23010;DHT22;11671;49.990;8.028;2023-05-07T09:04:05;23.50;99.90
23010;DHT22;11671;49.990;8.028;2023-05-07T09:06:32;23.20;99.90
23010;DHT22;11671;49.990;8.028;2023-05-07T09:08:58;23.20;99.90
23010;DHT22;11671;49.990;8.028;2023-05-07T09:11:27;22.90;99.90
23010;DHT22;11671;49.990;8.028;2023-05-07T09:13:56;22.90;99.90
23010;DHT22;11671;49.990;8.028;2023-05-07T09:16:24;23.30;99.90
23010;DHT22;11671;49.990;8.028;2023-05-07T09:18:54;23.50;99.90
23010;DHT22;11671;49.990;8.028;2023-05-07T09:21:20;23.40;99.90
23010;DHT22;11671;49.990;8.028;2023-05-07T09:23:51;23.20;99.90
23010;DHT22;11671;49.990;8.028;2023-05-07T09:26:18;23.50;99.90
23010;DHT22;11671;49.990;8.028;2023-05-07T09:28:44;23.70;99.90
23010;DHT22;11671;49.990;8.028;2023-05-07T09:31:12;23.80;99.90
23010;DHT22;11671;49.990;8.028;2023-05-07T09:33:38;23.40;99.90
23010;DHT22;11671;49.990;8.028;2023-05-07T09:36:05;23.50;99.90
23010;DHT22;11671;49.990;8.028;2023-05-07T09:38:35;23.50;99.90
23010;DHT22;11671;49.990;8.028;2023-05-07T09:41:09;24.00;99.90
23010;DHT22;11671;49.990;8.028;2023-05-07T09:43:36;24.20;99.90
23010;DHT22;11671;49.990;8.028;2023-05-07T09:46:13;24.10;99.90
23010;DHT22;11671;49.990;8.028;2023-05-07T09:48:40;24.10;99.90
23010;DHT22;11671;49.990;8.028;2023-05-07T09:51:21;23.90;99.90
23010;DHT22;11671;49.990;8.028;2023-05-07T09:53:48;24.00;99.90
23010;DHT22;11671;49.990;8.028;2023-05-07T09:56:15;24.20;99.90
23010;DHT22;11671;49.990;8.028;2023-05-07T09:58:42;24.20;99.90
23010;DHT22;11671;49.990;8.028;2023-05-07T10:01:10;24.30;99.90
23010;DHT22;11671;49.990;8.028;2023-05-07T10:03:40;24.60;99.90
23010;DHT22;11671;49.990;8.028;2023-05-07T10:06:08;24.00;99.90
23010;DHT22;11671;49.990;8.028;2023-05-07T10:08:35;24.20;99.90
23010;DHT22;11671;49.990;8.028;2023-05-07T10:11:01;24.20;99.90
23010;DHT22;11671;49.990;8.028;2023-05-07T10:13:27;24.30;99.90
23010;DHT22;11671;49.990;8.028;2023-05-07T10:15:55;23.90;99.90
23010;DHT22;11671;49.990;8.028;2023-05-07T10:18:21;23.80;99.90
23010;DHT22;11671;49.990;8.028;2023-05-07T10:20:56;23.60;99.90
23010;DHT22;11671;49.990;8.028;2023-05-07T10:23:26;23.40;99.90
23010;DHT22;11671;49.990;8.028;2023-05-07T10:25:53;23.40;99.90
23010;DHT22;11671;49.990;8.028;2023-05-07T10:28:20;23.70;99.90
23010;DHT22;11671;49.990;8.028;2023-05-07T10:33:45;23.60;99.90
23010;DHT22;11671;49.990;8.028;2023-05-07T10:36:12;23.80;99.90
23010;DHT22;11671;49.990;8.028;2023-05-07T10:38:38;23.80;99.90
23010;DHT22;11671;49.990;8.028;2023-05-07T10:41:06;23.80;99.90
23010;DHT22;11671;49.990;8.028;2023-05-07T10:43:39;24.10;99.90
23010;DHT22;11671;49.990;8.028;2023-05-07T10:46:20;23.90;99.90
23010;DHT22;11671;49.990;8.028;2023-05-07T10:51:32;24.00;99.90
23010;DHT22;11671;49.990;8.028;2023-05-07T10:56:40;24.50;99.90
23010;DHT22;11671;49.990;8.028;2023-05-07T11:01:50;24.70;99.90
23010;DHT22;11671;49.990;8.028;2023-05-07T11:04:17;24.20;99.90
23010;DHT22;11671;49.990;8.028;2023-05-07T11:15:07;24.10;99.90
23010;DHT22;11671;49.990;8.028;2023-05-07T11:17:34;24.40;99.90
23010;DHT22;11671;49.990;8.028;2023-05-07T11:20:01;24.50;99.90
23010;DHT22;11671;49.990;8.028;2023-05-07T11:24:56;24.90;99.90
23010;DHT22;11671;49.990;8.028;2023-05-07T11:27:26;25.00;99.90
23010;DHT22;11671;49.990;8.028;2023-05-07T11:29:52;25.20;99.90
23010;DHT22;11671;49.990;8.028;2023-05-07T11:32:26;25.40;99.90
23010;DHT22;11671;49.990;8.028;2023-05-07T11:34:52;25.40;99.90
23010;DHT22;11671;49.990;8.028;2023-05-07T11:37:19;24.90;99.90
23010;DHT22;11671;49.990;8.028;2023-05-07T11:39:45;25.00;99.90
23010;DHT22;11671;49.990;8.028;2023-05-07T11:42:37;25.20;99.90
23010;DHT22;11671;49.990;8.028;2023-05-07T11:45:04;25.30;99.90
23010;DHT22;11671;49.990;8.028;2023-05-07T11:47:31;25.10;99.90
23010;DHT22;11671;49.990;8.028;2023-05-07T11:50:06;24.90;99.90
23010;DHT22;11671;49.990;8.028;2023-05-07T11:52:34;24.80;99.90
23010;DHT22;11671;49.990;8.028;2023-05-07T11:55:03;24.80;99.90
23010;DHT22;11671;49.990;8.028;2023-05-07T11:57:29;24.90;99.90
23010;DHT22;11671;49.990;8.028;2023-05-07T11:59:59;25.00;99.90
23010;DHT22;11671;49.990;8.028;2023-05-07T12:02:27;25.30;99.90
23010;DHT22;11671;49.990;8.028;2023-05-07T12:04:53;25.40;99.90
23010;DHT22;11671;49.990;8.028;2023-05-07T12:07:20;25.70;99.90
23010;DHT22;11671;49.990;8.028;2023-05-07T12:09:46;25.70;99.90
23010;DHT22;11671;49.990;8.028;2023-05-07T12:12:12;25.90;99.90
23010;DHT22;11671;49.990;8.028;2023-05-07T12:14:44;25.90;99.90
23010;DHT22;11671;49.990;8.028;2023-05-07T12:17:12;25.90;99.90
23010;DHT22;11671;49.990;8.028;2023-05-07T12:19:40;25.90;99.90
23010;DHT22;11671;49.990;8.028;2023-05-07T12:22:09;26.20;99.90
23010;DHT22;11671;49.990;8.028;2023-05-07T12:24:49;26.10;99.90
23010;DHT22;11671;49.990;8.028;2023-05-07T12:27:15;26.10;99.90
23010;DHT22;11671;49.990;8.028;2023-05-07T12:29:48;26.10;99.90
23010;DHT22;11671;49.990;8.028;2023-05-07T12:32:18;26.40;99.90
23010;DHT22;11671;49.990;8.028;2023-05-07T12:34:44;26.30;99.90
23010;DHT22;11671;49.990;8.028;2023-05-07T12:37:10;26.00;99.90
23010;DHT22;11671;49.990;8.028;2023-05-07T12:39:36;25.80;99.90
23010;DHT22;11671;49.990;8.028;2023-05-07T12:42:01;25.50;99.90
23010;DHT22;11671;49.990;8.028;2023-05-07T12:44:34;25.30;99.90
23010;DHT22;11671;49.990;8.028;2023-05-07T12:47:03;25.30;99.90
23010;DHT22;11671;49.990;8.028;2023-05-07T12:49:28;25.70;99.90
23010;DHT22;11671;49.990;8.028;2023-05-07T12:51:54;26.00;99.90
23010;DHT22;11671;49.990;8.028;2023-05-07T12:54:33;26.10;99.90
23010;DHT22;11671;49.990;8.028;2023-05-07T12:57:06;26.30;99.90
23010;DHT22;11671;49.990;8.028;2023-05-07T12:59:41;26.00;99.90
23010;DHT22;11671;49.990;8.028;2023-05-07T13:02:08;26.00;99.90
23010;DHT22;11671;49.990;8.028;2023-05-07T13:04:34;26.00;99.90
23010;DHT22;11671;49.990;8.028;2023-05-07T13:07:00;26.10;99.90
23010;DHT22;11671;49.990;8.028;2023-05-07T13:09:26;26.10;99.90
23010;DHT22;11671;49.990;8.028;2023-05-07T13:11:53;26.40;99.90
23010;DHT22;11671;49.990;8.028;2023-05-07T13:14:20;26.40;99.90
23010;DHT22;11671;49.990;8.028;2023-05-07T13:16:49;26.30;99.90
23010;DHT22;11671;49.990;8.028;2023-05-07T13:19:15;26.40;99.90
23010;DHT22;11671;49.990;8.028;2023-05-07T13:21:40;26.30;99.90
23010;DHT22;11671;49.990;8.028;2023-05-07T13:24:06;26.50;99.90
23010;DHT22;11671;49.990;8.028;2023-05-07T13:26:32;26.80;99.90
23010;DHT22;11671;49.990;8.028;2023-05-07T13:28:58;27.20;99.90
23010;DHT22;11671;49.990;8.028;2023-05-07T13:31:24;27.20;99.90
23010;DHT22;11671;49.990;8.028;2023-05-07T13:33:50;26.90;99.90
23010;DHT22;11671;49.990;8.028;2023-05-07T13:36:15;27.10;99.90
23010;DHT22;11671;49.990;8.028;2023-05-07T13:38:41;27.20;99.90
23010;DHT22;11671;49.990;8.028;2023-05-07T13:41:07;27.20;99.90
23010;DHT22;11671;49.990;8.028;2023-05-07T13:43:32;26.80;99.90
23010;DHT22;11671;49.990;8.028;2023-05-07T13:45:59;26.90;99.90
23010;DHT22;11671;49.990;8.028;2023-05-07T13:48:25;26.90;99.90
23010;DHT22;11671;49.990;8.028;2023-05-07T13:50:50;27.10;99.90
23010;DHT22;11671;49.990;8.028;2023-05-07T13:53:17;27.30;99.90
23010;DHT22;11671;49.990;8.028;2023-05-07T13:55:44;27.30;99.90
23010;DHT22;11671;49.990;8.028;2023-05-07T13:58:10;27.30;99.90
23010;DHT22;11671;49.990;8.028;2023-05-07T14:00:36;27.10;99.90
23010;DHT22;11671;49.990;8.028;2023-05-07T14:03:02;27.20;99.90
23010;DHT22;11671;49.990;8.028;2023-05-07T14:05:28;27.40;99.90
23010;DHT22;11671;49.990;8.028;2023-05-07T14:07:55;27.50;99.90
23010;DHT22;11671;49.990;8.028;2023-05-07T14:10:21;27.60;99.90
23010;DHT22;11671;49.990;8.028;2023-05-07T14:12:47;27.60;99.90
23010;DHT22;11671;49.990;8.028;2023-05-07T14:15:15;27.40;99.90
23010;DHT22;11671;49.990;8.028;2023-05-07T14:17:42;27.30;99.90
23010;DHT22;11671;49.990;8.028;2023-05-07T14:20:08;27.30;99.90
23010;DHT22;11671;49.990;8.028;2023-05-07T14:22:34;27.20;99.90
23010;DHT22;11671;49.990;8.028;2023-05-07T14:24:59;27.10;99.90
23010;DHT22;11671;49.990;8.028;2023-05-07T14:27:25;27.00;99.90
23010;DHT22;11671;49.990;8.028;2023-05-07T14:29:51;26.80;99.90
23010;DHT22;11671;49.990;8.028;2023-05-07T14:32:20;26.90;99.90
23010;DHT22;11671;49.990;8.028;2023-05-07T14:34:46;26.90;99.90
23010;DHT22;11671;49.990;8.028;2023-05-07T14:37:12;26.80;99.90
23010;DHT22;11671;49.990;8.028;2023-05-07T14:39:38;26.60;99.90
23010;DHT22;11671;49.990;8.028;2023-05-07T14:42:04;26.40;99.90
23010;DHT22;11671;49.990;8.028;2023-05-07T14:44:29;26.40;99.90
23010;DHT22;11671;49.990;8.028;2023-05-07T14:46:56;26.40;99.90
23010;DHT22;11671;49.990;8.028;2023-05-07T14:49:22;26.30;99.90
23010;DHT22;11671;49.990;8.028;2023-05-07T14:51:48;26.10;99.90
23010;DHT22;11671;49.990;8.028;2023-05-07T14:54:14;25.90;99.90
23010;DHT22;11671;49.990;8.028;2023-05-07T14:56:40;25.80;99.90
23010;DHT22;11671;49.990;8.028;2023-05-07T14:59:07;25.70;99.90
23010;DHT22;11671;49.990;8.028;2023-05-07T15:01:34;25.70;99.90
23010;DHT22;11671;49.990;8.028;2023-05-07T15:04:04;25.60;99.90
23010;DHT22;11671;49.990;8.028;2023-05-07T15:06:30;25.50;99.90
23010;DHT22;11671;49.990;8.028;2023-05-07T15:08:56;25.50;99.90
23010;DHT22;11671;49.990;8.028;2023-05-07T15:11:22;25.50;99.90
23010;DHT22;11671;49.990;8.028;2023-05-07T15:13:49;25.50;99.90
23010;DHT22;11671;49.990;8.028;2023-05-07T15:16:15;25.60;99.90
23010;DHT22;11671;49.990;8.028;2023-05-07T15:18:40;25.70;99.90
23010;DHT22;11671;49.990;8.028;2023-05-07T15:21:06;25.80;99.90
23010;DHT22;11671;49.990;8.028;2023-05-07T15:23:32;25.90;99.90
23010;DHT22;11671;49.990;8.028;2023-05-07T15:25:57;26.00;99.90
23010;DHT22;11671;49.990;8.028;2023-05-07T15:28:23;25.90;99.90
23010;DHT22;11671;49.990;8.028;2023-05-07T15:30:50;25.70;99.90
23010;DHT22;11671;49.990;8.028;2023-05-07T15:33:16;25.60;99.90
23010;DHT22;11671;49.990;8.028;2023-05-07T15:35:41;25.30;99.90
23010;DHT22;11671;49.990;8.028;2023-05-07T15:38:07;25.20;99.90
23010;DHT22;11671;49.990;8.028;2023-05-07T15:40:34;25.10;99.90
23010;DHT22;11671;49.990;8.028;2023-05-07T15:43:00;24.80;99.90
23010;DHT22;11671;49.990;8.028;2023-05-07T15:45:26;24.60;99.90
23010;DHT22;11671;49.990;8.028;2023-05-07T15:47:51;24.50;99.90
23010;DHT22;11671;49.990;8.028;2023-05-07T15:50:17;24.20;99.90